Time;durP1;ratioP1;P1;durP2;ratioP2;P2;SDS_P1;SDS_P2;PMS_P1;PMS_P2;Temp;Humidity;BMP_temperature;BMP_pressure;BME280_temperature;BME280_humidity;BME280_pressure;Samples;Min_cycle;Max_cycle;Signal;HPM_P1;HPM_P2
2021/12/09 00:01:39;;;;;;;11.13;10.17;;;2.90;99.90;;;;;;5054234;28;20584;-65
2021/12/09 00:04:09;;;;;;;10.37;9.87;;;2.90;99.90;;;;;;5042991;28;20207;-66
2021/12/09 00:06:36;;;;;;;11.50;10.70;;;2.90;99.90;;;;;;5034221;28;20176;-65
2021/12/09 00:09:14;;;;;;;11.87;11.20;;;2.90;99.90;;;;;;5043410;28;20194;-65
2021/12/09 00:11:44;;;;;;;13.87;12.93;;;2.90;99.90;;;;;;5054032;28;20178;-66
2021/12/09 00:14:16;;;;;;;15.27;14.17;;;3.00;99.90;;;;;;5037373;28;20182;-65
2021/12/09 00:16:43;;;;;;;16.00;14.93;;;3.00;99.90;;;;;;5033968;28;20206;-66
2021/12/09 00:19:09;;;;;;;14.60;13.50;;;3.00;99.90;;;;;;5048979;28;20706;-65
2021/12/09 00:21:35;;;;;;;13.53;12.70;;;3.00;99.90;;;;;;5048264;28;20176;-65
2021/12/09 00:24:01;;;;;;;12.03;11.43;;;3.10;99.90;;;;;;5033449;28;20198;-65
2021/12/09 00:26:27;;;;;;;11.30;10.50;;;3.20;99.90;;;;;;5037308;28;20175;-65
2021/12/09 00:28:53;;;;;;;12.87;11.27;;;3.20;99.90;;;;;;5053567;28;20720;-65
2021/12/09 00:31:19;;;;;;;10.23;9.53;;;3.30;99.90;;;;;;5051350;28;20177;-65
2021/12/09 00:33:46;;;;;;;9.53;9.03;;;3.30;99.90;;;;;;5033547;28;20648;-65
2021/12/09 00:36:16;;;;;;;10.47;9.23;;;3.30;99.90;;;;;;5033868;28;20259;-67
2021/12/09 00:38:42;;;;;;;9.70;8.90;;;3.30;99.90;;;;;;5053149;28;20230;-65
2021/12/09 00:41:14;;;;;;;10.07;9.03;;;3.40;99.90;;;;;;5053199;28;20209;-65
2021/12/09 00:43:41;;;;;;;9.90;9.10;;;3.40;99.90;;;;;;5026976;28;20175;-66
2021/12/09 00:46:07;;;;;;;9.83;9.03;;;3.40;99.90;;;;;;5052819;28;20201;-64
2021/12/09 00:48:33;;;;;;;11.03;10.07;;;3.30;99.90;;;;;;5034228;28;20195;-67
2021/12/09 00:51:00;;;;;;;10.93;10.23;;;3.30;99.90;;;;;;5034264;28;20184;-65
2021/12/09 00:53:26;;;;;;;11.40;10.80;;;3.30;99.90;;;;;;5032902;28;20191;-65
2021/12/09 00:55:52;;;;;;;11.13;10.47;;;3.30;99.90;;;;;;5027724;28;20656;-65
2021/12/09 00:58:18;;;;;;;11.90;10.83;;;3.30;99.90;;;;;;5052913;28;20617;-66
2021/12/09 01:00:44;;;;;;;11.03;10.43;;;3.30;99.90;;;;;;5040500;28;20183;-65
2021/12/09 01:03:09;;;;;;;12.77;10.10;;;3.40;99.90;;;;;;5032857;28;20641;-64
2021/12/09 01:05:35;;;;;;;9.90;9.17;;;3.40;99.90;;;;;;5042119;28;20209;-66
2021/12/09 01:08:01;;;;;;;9.77;9.17;;;3.40;99.90;;;;;;5052582;28;20253;-66
2021/12/09 01:10:28;;;;;;;9.80;9.17;;;3.40;99.90;;;;;;5045036;28;20657;-65
2021/12/09 01:12:54;;;;;;;10.40;9.53;;;3.50;99.90;;;;;;5032539;28;20163;-65
2021/12/09 01:15:21;;;;;;;9.33;8.53;;;3.40;99.90;;;;;;5038559;28;20175;-65
2021/12/09 01:17:47;;;;;;;8.87;8.37;;;3.50;99.90;;;;;;5052469;28;20601;-65
2021/12/09 01:20:15;;;;;;;9.50;8.90;;;3.50;99.90;;;;;;5047822;28;20660;-66
2021/12/09 01:22:43;;;;;;;9.73;9.03;;;3.50;99.90;;;;;;5032434;28;20167;-65
2021/12/09 01:25:16;;;;;;;10.50;9.80;;;3.40;99.90;;;;;;5035543;28;20274;-65
2021/12/09 01:27:45;;;;;;;10.50;9.90;;;3.30;99.90;;;;;;5052428;28;20285;-65
2021/12/09 01:30:16;;;;;;;11.60;10.90;;;3.10;99.90;;;;;;5049024;28;20211;-65
2021/12/09 01:32:48;;;;;;;12.70;12.00;;;3.00;99.90;;;;;;5014488;28;20171;-65
2021/12/09 01:35:15;;;;;;;12.77;11.77;;;2.90;99.90;;;;;;5035181;28;20224;-65
2021/12/09 01:37:41;;;;;;;11.47;10.70;;;2.80;99.90;;;;;;5034089;28;20364;-65
2021/12/09 01:40:08;;;;;;;12.03;11.27;;;2.70;99.90;;;;;;5050592;28;20668;-65
2021/12/09 01:42:35;;;;;;;12.37;11.47;;;2.60;99.90;;;;;;5035102;28;20179;-66
2021/12/09 01:45:01;;;;;;;12.90;12.10;;;2.50;99.90;;;;;;5032213;28;20167;-65
2021/12/09 01:47:27;;;;;;;13.03;12.30;;;2.50;99.90;;;;;;5032131;28;20764;-65
2021/12/09 01:49:53;;;;;;;12.50;11.80;;;2.50;99.90;;;;;;5051082;28;20186;-65
2021/12/09 01:52:18;;;;;;;12.60;11.80;;;2.50;99.90;;;;;;5034014;28;20540;-65
2021/12/09 01:54:44;;;;;;;12.27;11.57;;;2.40;99.90;;;;;;5034440;28;20515;-65
2021/12/09 01:57:09;;;;;;;10.30;9.80;;;2.40;99.90;;;;;;5034524;28;20199;-65
2021/12/09 01:59:35;;;;;;;11.53;9.77;;;2.30;99.90;;;;;;5051244;28;20182;-65
2021/12/09 02:02:01;;;;;;;9.83;9.03;;;2.30;99.90;;;;;;5049256;28;20167;-65
2021/12/09 02:04:27;;;;;;;8.57;7.90;;;2.20;99.90;;;;;;5014445;28;20168;-64
2021/12/09 02:06:53;;;;;;;8.57;8.07;;;2.10;99.90;;;;;;5032144;28;20538;-65
2021/12/09 02:09:19;;;;;;;9.33;8.80;;;2.10;99.90;;;;;;5033989;28;20197;-65
2021/12/09 02:11:46;;;;;;;9.50;8.83;;;2.00;99.90;;;;;;5045221;28;20263;-65
2021/12/09 02:14:12;;;;;;;8.60;8.00;;;2.00;99.90;;;;;;5031493;28;20253;-65
2021/12/09 02:16:39;;;;;;;8.50;7.90;;;1.90;99.90;;;;;;5032881;28;20882;-65
2021/12/09 02:19:05;;;;;;;8.00;7.50;;;1.90;99.90;;;;;;5031508;28;20184;-65
2021/12/09 02:21:33;;;;;;;9.10;8.40;;;1.80;99.90;;;;;;5036418;28;20199;-65
2021/12/09 02:24:05;;;;;;;9.20;8.40;;;1.80;99.90;;;;;;5051225;28;20313;-65
2021/12/09 02:26:37;;;;;;;9.10;8.20;;;1.70;99.90;;;;;;5047159;28;20267;-65
2021/12/09 02:29:05;;;;;;;8.33;7.73;;;1.70;99.90;;;;;;5031517;28;20665;-65
2021/12/09 02:31:31;;;;;;;9.37;8.47;;;1.70;99.90;;;;;;5035242;28;20639;-66
2021/12/09 02:33:58;;;;;;;9.30;8.60;;;1.60;99.90;;;;;;5051153;28;20171;-65
2021/12/09 02:36:25;;;;;;;9.93;8.70;;;1.60;99.90;;;;;;5048917;28;20167;-65
2021/12/09 02:38:51;;;;;;;8.60;8.00;;;1.60;99.90;;;;;;5038360;28;20694;-64
2021/12/09 02:41:24;;;;;;;8.93;8.37;;;1.50;99.90;;;;;;5050297;28;20163;-65
2021/12/09 02:43:54;;;;;;;11.20;10.40;;;1.40;99.90;;;;;;5031285;28;20172;-65
2021/12/09 02:46:23;;;;;;;8.90;8.30;;;1.30;99.90;;;;;;5049374;28;20547;-64
2021/12/09 02:48:49;;;;;;;8.40;7.87;;;1.30;99.90;;;;;;5051393;28;20703;-64
2021/12/09 02:51:15;;;;;;;9.20;8.70;;;1.20;99.90;;;;;;5034222;28;20191;-64
2021/12/09 02:53:40;;;;;;;9.30;8.80;;;1.10;99.90;;;;;;5031212;28;20172;-65
2021/12/09 02:56:06;;;;;;;8.20;7.80;;;1.00;99.90;;;;;;5046791;28;20214;-67
2021/12/09 02:58:32;;;;;;;8.77;8.17;;;0.90;99.90;;;;;;5051163;28;20213;-65
2021/12/09 03:01:11;;;;;;;9.33;8.83;;;0.90;99.90;;;;;;5031509;28;20678;-66
2021/12/09 03:03:37;;;;;;;9.70;9.10;;;0.80;99.90;;;;;;5031030;28;20175;-65
2021/12/09 03:06:03;;;;;;;10.07;9.47;;;0.90;99.90;;;;;;5049426;28;20526;-65
2021/12/09 03:08:36;;;;;;;11.97;9.63;;;0.80;99.90;;;;;;5052035;28;20244;-64
2021/12/09 03:11:06;;;;;;;10.43;9.73;;;0.80;99.90;;;;;;5037208;28;20676;-64
2021/12/09 03:13:31;;;;;;;9.33;8.70;;;0.70;99.90;;;;;;5043562;28;20610;-66
2021/12/09 03:15:57;;;;;;;10.67;9.70;;;0.70;99.90;;;;;;5055351;28;20194;-66
2021/12/09 03:18:23;;;;;;;10.27;9.67;;;0.60;99.90;;;;;;5047598;28;20211;-66
2021/12/09 03:20:48;;;;;;;10.13;9.53;;;0.60;99.90;;;;;;5035018;28;20668;-66
2021/12/09 03:23:14;;;;;;;10.47;9.87;;;0.60;99.90;;;;;;5039889;28;20210;-65
2021/12/09 03:25:42;;;;;;;12.07;10.77;;;0.60;99.90;;;;;;5054887;28;20198;-65
2021/12/09 03:28:07;;;;;;;10.13;9.33;;;0.60;99.90;;;;;;5050621;28;20206;-66
2021/12/09 03:30:33;;;;;;;10.27;9.43;;;0.60;99.90;;;;;;5034868;28;20653;-66
2021/12/09 03:32:59;;;;;;;10.47;9.87;;;0.60;99.90;;;;;;5036425;28;20176;-65
2021/12/09 03:35:25;;;;;;;9.70;8.80;;;0.60;99.90;;;;;;5054485;28;20186;-66
2021/12/09 03:37:51;;;;;;;9.83;9.23;;;0.60;99.90;;;;;;5053586;28;20237;-65
2021/12/09 03:40:17;;;;;;;10.20;9.60;;;0.60;99.90;;;;;;5034763;28;20550;-65
2021/12/09 03:42:43;;;;;;;10.30;9.70;;;0.60;99.90;;;;;;5034380;28;20218;-65
2021/12/09 03:45:10;;;;;;;10.97;10.10;;;0.60;99.90;;;;;;5053101;28;20262;-66
2021/12/09 03:47:36;;;;;;;9.93;9.27;;;0.60;99.90;;;;;;5054610;28;20602;-65
2021/12/09 03:50:04;;;;;;;10.40;9.70;;;0.50;99.90;;;;;;5036871;28;20646;-65
2021/12/09 03:52:30;;;;;;;9.13;8.70;;;0.40;99.90;;;;;;5016389;28;20653;-65
2021/12/09 03:54:57;;;;;;;9.97;9.20;;;0.40;99.90;;;;;;5050200;28;20228;-65
2021/12/09 03:57:23;;;;;;;8.70;8.20;;;0.30;99.90;;;;;;5054033;28;20198;-65
2021/12/09 03:59:49;;;;;;;9.37;8.87;;;0.30;99.90;;;;;;5038293;28;20730;-65
2021/12/09 04:02:16;;;;;;;11.30;10.63;;;0.20;99.90;;;;;;5050066;28;20736;-66
2021/12/09 04:04:42;;;;;;;9.97;9.30;;;0.20;99.90;;;;;;5040795;28;20172;-65
2021/12/09 04:07:08;;;;;;;9.27;8.70;;;0.20;99.90;;;;;;5033911;28;20202;-65
2021/12/09 04:09:34;;;;;;;11.47;10.67;;;0.20;99.90;;;;;;5045256;28;20210;-65
2021/12/09 04:12:00;;;;;;;16.40;14.83;;;0.20;99.90;;;;;;5045378;28;20183;-65
2021/12/09 04:14:26;;;;;;;15.93;14.30;;;0.20;99.90;;;;;;5034047;28;20263;-65
2021/12/09 04:16:52;;;;;;;23.07;13.57;;;0.10;99.90;;;;;;5040036;28;20719;-66
2021/12/09 04:19:19;;;;;;;16.10;13.33;;;0.10;99.90;;;;;;5053540;28;20199;-65
2021/12/09 04:21:46;;;;;;;12.00;11.00;;;0.10;99.90;;;;;;5048158;28;20164;-65
2021/12/09 04:24:13;;;;;;;10.33;9.30;;;0.10;99.90;;;;;;5033558;28;20175;-65
2021/12/09 04:26:41;;;;;;;9.83;9.23;;;0.20;99.90;;;;;;5037057;28;20203;-66
2021/12/09 04:29:09;;;;;;;10.53;9.50;;;0.30;99.90;;;;;;5053461;28;20202;-65
2021/12/09 04:31:35;;;;;;;9.93;9.33;;;0.30;99.90;;;;;;5050906;28;20203;-65
2021/12/09 04:34:01;;;;;;;12.27;11.43;;;0.20;99.90;;;;;;5033316;28;20206;-65
2021/12/09 04:36:27;;;;;;;10.90;10.27;;;0.30;99.90;;;;;;5033641;28;20168;-65
2021/12/09 04:38:56;;;;;;;10.73;9.83;;;0.30;99.90;;;;;;5033657;28;20692;-65
2021/12/09 04:41:22;;;;;;;10.37;9.57;;;0.40;99.90;;;;;;5033430;28;20210;-65
2021/12/09 04:43:48;;;;;;;16.37;10.97;;;0.40;99.90;;;;;;5052980;28;20262;-65
2021/12/09 04:46:14;;;;;;;10.07;9.33;;;0.40;99.90;;;;;;5053338;28;20174;-63
2021/12/09 04:48:41;;;;;;;11.37;10.07;;;0.50;99.90;;;;;;5052819;28;20266;-62
2021/12/09 04:51:06;;;;;;;10.17;9.47;;;0.50;99.90;;;;;;5053423;28;20175;-64
2021/12/09 04:53:33;;;;;;;10.13;9.43;;;0.60;99.90;;;;;;5036152;28;20203;-63
2021/12/09 04:55:59;;;;;;;10.57;9.67;;;0.70;99.90;;;;;;5045190;28;20179;-64
2021/12/09 04:58:25;;;;;;;10.73;10.03;;;0.70;99.90;;;;;;5052935;28;20289;-66
2021/12/09 05:00:53;;;;;;;9.00;8.40;;;0.80;99.90;;;;;;5042146;28;20176;-65
2021/12/09 05:03:19;;;;;;;10.13;9.27;;;0.80;99.90;;;;;;5032705;28;20164;-65
2021/12/09 05:05:48;;;;;;;9.57;8.97;;;0.80;99.90;;;;;;5042047;28;20179;-65
2021/12/09 05:08:16;;;;;;;10.67;10.07;;;0.90;99.90;;;;;;5052914;28;20702;-65
2021/12/09 05:13:17;;;;;;;10.67;9.90;;;0.90;99.90;;;;;;5032524;28;20629;-66
2021/12/09 05:15:43;;;;;;;11.73;10.73;;;0.80;99.90;;;;;;5040331;28;20178;-66
2021/12/09 05:18:09;;;;;;;11.10;10.40;;;0.80;99.90;;;;;;5052574;28;20213;-66
2021/12/09 05:20:35;;;;;;;9.80;9.10;;;0.80;99.90;;;;;;5046477;28;20183;-65
2021/12/09 05:23:00;;;;;;;12.43;10.37;;;0.90;99.90;;;;;;5033590;28;20230;-65
2021/12/09 05:25:26;;;;;;;9.77;9.07;;;0.80;99.90;;;;;;5052359;28;20204;-65
2021/12/09 05:27:53;;;;;;;9.60;8.90;;;0.80;99.90;;;;;;5052302;28;20201;-65
2021/12/09 05:30:24;;;;;;;10.17;9.27;;;0.80;99.90;;;;;;5032853;28;20618;-65
2021/12/09 05:32:50;;;;;;;10.00;9.27;;;0.70;99.90;;;;;;5032362;28;20254;-65
2021/12/09 05:35:16;;;;;;;9.63;8.80;;;0.70;99.90;;;;;;5051268;28;20175;-66
2021/12/09 05:37:43;;;;;;;9.17;8.67;;;0.60;99.90;;;;;;5052269;28;20273;-67
2021/12/09 05:40:10;;;;;;;10.00;9.37;;;0.60;99.90;;;;;;5034542;28;20178;-65
2021/12/09 05:42:36;;;;;;;10.53;9.10;;;0.60;99.90;;;;;;5032101;28;20531;-65
2021/12/09 05:45:02;;;;;;;10.27;9.57;;;0.60;99.90;;;;;;5044376;28;20186;-66
2021/12/09 05:47:30;;;;;;;10.27;9.47;;;0.70;99.90;;;;;;5032070;28;20175;-65
2021/12/09 05:49:55;;;;;;;10.13;9.43;;;0.70;99.90;;;;;;5032316;28;20185;-66
2021/12/09 05:52:21;;;;;;;10.50;9.60;;;0.70;99.90;;;;;;5045285;28;20186;-66
2021/12/09 05:54:47;;;;;;;10.77;9.87;;;0.70;99.90;;;;;;5052114;28;20171;-65
2021/12/09 05:57:13;;;;;;;9.77;9.13;;;0.60;99.90;;;;;;5039782;28;20206;-65
2021/12/09 05:59:41;;;;;;;10.73;9.93;;;0.60;99.90;;;;;;5031540;28;20168;-65
2021/12/09 06:02:11;;;;;;;11.33;10.63;;;0.50;99.90;;;;;;5041842;28;20167;-65
2021/12/09 06:04:37;;;;;;;11.67;10.77;;;0.50;99.90;;;;;;5052000;28;20236;-65
2021/12/09 06:07:03;;;;;;;11.40;10.70;;;0.50;99.90;;;;;;5042268;28;20580;-65
2021/12/09 06:09:29;;;;;;;12.20;11.50;;;0.40;99.90;;;;;;5048257;28;20734;-65
2021/12/09 06:11:55;;;;;;;11.60;10.90;;;0.40;99.90;;;;;;5049920;28;20299;-65
2021/12/09 06:14:20;;;;;;;11.47;10.60;;;0.40;99.90;;;;;;5051728;28;20205;-65
2021/12/09 06:16:46;;;;;;;11.50;10.50;;;0.40;99.90;;;;;;5043003;28;20183;-65
2021/12/09 06:19:12;;;;;;;9.87;9.20;;;0.40;99.90;;;;;;5032938;28;20192;-65
2021/12/09 06:21:38;;;;;;;9.20;8.63;;;0.40;99.90;;;;;;5051586;28;20198;-65
2021/12/09 06:24:04;;;;;;;10.43;8.87;;;0.50;99.90;;;;;;5051064;28;20166;-65
2021/12/09 06:26:31;;;;;;;10.13;9.23;;;0.50;99.90;;;;;;5031763;28;20660;-65
2021/12/09 06:28:58;;;;;;;10.70;9.90;;;0.60;99.90;;;;;;5031557;28;20219;-65
2021/12/09 06:31:24;;;;;;;9.93;9.13;;;0.60;99.90;;;;;;5049745;28;20565;-64
2021/12/09 06:33:50;;;;;;;9.70;9.17;;;0.60;99.90;;;;;;5033256;28;20174;-65
2021/12/09 06:36:17;;;;;;;21.47;12.70;;;0.70;99.90;;;;;;5034514;28;20198;-65
2021/12/09 06:38:43;;;;;;;10.77;9.80;;;0.70;99.90;;;;;;5031952;28;20242;-65
2021/12/09 06:41:09;;;;;;;12.57;10.73;;;0.70;99.90;;;;;;5046744;28;20641;-65
2021/12/09 06:43:42;;;;;;;10.13;9.33;;;0.80;99.90;;;;;;5053711;28;20174;-65
2021/12/09 06:46:11;;;;;;;10.07;9.20;;;0.80;99.90;;;;;;5056505;28;20254;-64
2021/12/09 06:48:37;;;;;;;10.43;9.63;;;0.80;99.90;;;;;;5046988;28;20206;-65
2021/12/09 06:51:03;;;;;;;10.27;9.27;;;0.80;99.90;;;;;;5038046;28;20589;-66
2021/12/09 06:53:29;;;;;;;9.80;8.93;;;0.80;99.90;;;;;;5046484;28;20185;-65
2021/12/09 06:55:55;;;;;;;10.27;9.37;;;0.80;99.90;;;;;;5039948;28;20178;-65
2021/12/09 06:58:21;;;;;;;9.90;9.00;;;0.70;99.90;;;;;;5050076;28;20211;-64
2021/12/09 07:00:48;;;;;;;10.03;9.40;;;0.70;99.90;;;;;;5037886;28;20160;-65
2021/12/09 07:03:16;;;;;;;12.87;9.27;;;0.70;99.90;;;;;;5043286;28;20181;-65
2021/12/09 07:05:44;;;;;;;10.30;9.33;;;0.60;99.90;;;;;;5057769;28;20171;-64
2021/12/09 07:08:09;;;;;;;10.37;9.67;;;0.60;99.90;;;;;;5052499;28;20229;-64
2021/12/09 07:10:35;;;;;;;11.83;10.73;;;0.60;99.90;;;;;;5036297;28;20175;-66
2021/12/09 07:13:03;;;;;;;11.83;10.37;;;0.60;99.90;;;;;;5040305;28;20262;-65
2021/12/09 07:15:28;;;;;;;9.73;9.13;;;0.60;99.90;;;;;;5045053;28;20179;-66
2021/12/09 07:17:54;;;;;;;12.40;10.57;;;0.60;99.90;;;;;;5045600;28;20691;-66
2021/12/09 07:20:23;;;;;;;11.00;9.93;;;0.70;99.90;;;;;;5054673;28;20173;-66
2021/12/09 07:22:50;;;;;;;11.63;10.43;;;0.70;99.90;;;;;;5039806;28;20530;-66
2021/12/09 07:25:17;;;;;;;11.57;10.70;;;0.70;99.90;;;;;;5019917;28;20179;-65
2021/12/09 07:27:43;;;;;;;10.97;10.20;;;0.70;99.90;;;;;;5019731;28;20191;-66
2021/12/09 07:30:11;;;;;;;10.33;9.33;;;0.70;99.90;;;;;;5021417;28;20176;-66
2021/12/09 07:32:37;;;;;;;10.20;9.50;;;0.70;99.90;;;;;;5056838;28;20185;-65
2021/12/09 07:35:05;;;;;;;10.13;9.33;;;0.70;99.90;;;;;;5057501;28;20178;-64
2021/12/09 07:37:31;;;;;;;9.73;9.13;;;0.80;99.90;;;;;;5021038;28;20207;-65
2021/12/09 07:39:57;;;;;;;10.07;9.20;;;0.80;99.90;;;;;;5037497;28;20179;-65
2021/12/09 07:42:24;;;;;;;10.53;9.70;;;0.80;99.90;;;;;;5053436;28;20174;-65
2021/12/09 07:44:50;;;;;;;10.63;9.37;;;0.80;99.90;;;;;;5057482;28;20193;-65
2021/12/09 07:47:17;;;;;;;11.37;10.30;;;0.80;99.90;;;;;;5042257;28;20278;-66
2021/12/09 07:49:44;;;;;;;10.20;9.30;;;0.90;99.90;;;;;;5037391;28;20175;-66
2021/12/09 07:52:10;;;;;;;11.40;10.17;;;1.00;99.90;;;;;;5032619;28;20186;-66
2021/12/09 07:54:35;;;;;;;10.87;9.97;;;1.00;99.90;;;;;;5055787;28;20648;-66
2021/12/09 07:57:01;;;;;;;10.30;9.70;;;1.10;99.90;;;;;;5041706;28;20210;-66
2021/12/09 07:59:27;;;;;;;9.60;9.00;;;1.10;99.90;;;;;;5034063;28;20191;-66
2021/12/09 08:01:52;;;;;;;11.00;10.17;;;1.10;99.90;;;;;;5043940;28;20257;-65
2021/12/09 08:04:18;;;;;;;11.27;10.37;;;1.10;99.90;;;;;;5053843;28;20178;-67
2021/12/09 08:06:44;;;;;;;9.53;8.83;;;1.10;99.90;;;;;;5027908;28;20180;-67
2021/12/09 08:09:10;;;;;;;11.30;10.50;;;1.20;99.90;;;;;;5037347;28;20206;-67
2021/12/09 08:11:37;;;;;;;11.73;10.53;;;1.10;99.90;;;;;;5032074;28;20651;-67
2021/12/09 08:14:05;;;;;;;11.07;10.27;;;1.20;99.90;;;;;;5033857;28;20643;-66
2021/12/09 08:16:37;;;;;;;10.73;9.73;;;1.20;99.90;;;;;;5034107;28;20685;-67
2021/12/09 08:19:08;;;;;;;11.50;10.60;;;1.30;99.90;;;;;;5034536;28;20211;-65
2021/12/09 08:21:36;;;;;;;10.80;10.07;;;1.40;99.90;;;;;;5052985;28;20159;-67
2021/12/09 08:24:02;;;;;;;11.03;10.10;;;1.40;99.90;;;;;;5017417;28;20609;-66
2021/12/09 08:26:28;;;;;;;11.40;10.27;;;1.60;99.90;;;;;;5033853;28;20164;-67
2021/12/09 08:28:54;;;;;;;11.50;10.30;;;1.60;99.90;;;;;;5043341;28;20203;-66
2021/12/09 08:31:20;;;;;;;10.63;9.63;;;1.70;99.90;;;;;;5033668;28;20708;-67
2021/12/09 08:33:46;;;;;;;11.77;10.77;;;1.80;99.90;;;;;;5015727;28;20178;-67
2021/12/09 08:36:12;;;;;;;10.77;9.83;;;1.80;99.90;;;;;;5034730;28;20183;-67
2021/12/09 08:38:38;;;;;;;10.87;9.97;;;1.80;99.90;;;;;;5033745;28;20636;-66
2021/12/09 08:41:04;;;;;;;10.33;9.40;;;1.80;99.90;;;;;;5044370;28;20249;-66
2021/12/09 08:43:30;;;;;;;10.00;9.10;;;1.90;99.90;;;;;;5052994;28;20687;-65
2021/12/09 08:45:57;;;;;;;11.53;10.43;;;1.90;99.90;;;;;;5043616;28;20242;-65
2021/12/09 08:48:24;;;;;;;10.33;9.40;;;2.00;99.90;;;;;;5033306;28;20195;-66
2021/12/09 08:50:51;;;;;;;9.97;9.03;;;2.20;99.90;;;;;;5041169;28;20261;-65
2021/12/09 08:53:21;;;;;;;10.73;10.03;;;2.50;99.90;;;;;;5052791;28;20788;-66
2021/12/09 08:55:48;;;;;;;11.07;10.37;;;2.80;99.90;;;;;;5046194;28;20229;-66
2021/12/09 08:58:14;;;;;;;9.97;9.10;;;3.20;99.90;;;;;;5032911;28;20567;-66
2021/12/09 09:00:41;;;;;;;10.43;8.87;;;3.50;99.90;;;;;;5038360;28;20174;-66
2021/12/09 09:03:08;;;;;;;10.23;9.33;;;3.70;99.90;;;;;;5051188;28;20543;-66
2021/12/09 09:05:34;;;;;;;11.40;8.47;;;4.00;99.90;;;;;;5032897;28;20171;-66
2021/12/09 09:08:00;;;;;;;10.77;9.20;;;4.10;99.90;;;;;;5032674;28;20566;-65
2021/12/09 09:10:28;;;;;;;9.83;8.17;;;4.30;99.90;;;;;;5052209;28;20183;-64
2021/12/09 09:12:54;;;;;;;9.63;8.77;;;4.40;99.90;;;;;;5034696;28;20179;-66
2021/12/09 09:15:22;;;;;;;9.70;8.60;;;4.50;99.90;;;;;;5051103;28;20646;-67
2021/12/09 09:17:48;;;;;;;9.13;8.43;;;4.60;99.90;;;;;;5052608;28;20213;-65
2021/12/09 09:20:16;;;;;;;9.50;8.67;;;4.80;99.90;;;;;;5034427;28;20182;-64
2021/12/09 09:22:42;;;;;;;9.30;8.47;;;5.00;99.90;;;;;;5032671;28;20171;-66
2021/12/09 09:25:17;;;;;;;9.37;8.67;;;5.20;99.90;;;;;;5047606;28;20640;-64
2021/12/09 09:27:43;;;;;;;8.70;8.07;;;5.40;99.90;;;;;;5052402;28;20188;-65
2021/12/09 09:30:14;;;;;;;8.97;8.27;;;5.60;99.90;;;;;;5037567;28;20172;-65
2021/12/09 09:32:41;;;;;;;11.20;9.57;;;5.80;99.90;;;;;;5043710;28;20232;-67
2021/12/09 09:35:08;;;;;;;9.97;9.03;;;6.00;99.90;;;;;;5052376;28;20221;-65
2021/12/09 09:37:34;;;;;;;8.80;7.90;;;6.20;99.90;;;;;;5041845;28;20215;-65
2021/12/09 09:40:00;;;;;;;8.93;8.33;;;6.30;99.90;;;;;;5032386;28;20224;-65
2021/12/09 09:42:58;;;;;;;10.00;9.10;;;6.50;99.90;;;;;;5040005;28;20179;-65
2021/12/09 09:45:16;;;;;;;7.37;6.70;;;6.70;99.90;;;;;;5052090;28;20171;-66
2021/12/09 09:47:43;;;;;;;7.50;7.00;;;7.00;99.90;;;;;;5044248;28;20676;-66
2021/12/09 09:50:10;;;;;;;7.47;6.97;;;7.40;99.90;;;;;;5014369;28;20172;-66
2021/12/09 09:52:36;;;;;;;6.90;6.50;;;7.80;99.90;;;;;;5031938;28;20214;-66
2021/12/09 09:55:06;;;;;;;7.40;6.70;;;8.30;99.90;;;;;;5039055;28;20185;-67
2021/12/09 09:57:32;;;;;;;7.47;6.87;;;8.60;99.90;;;;;;5040778;28;20712;-66
2021/12/09 09:59:58;;;;;;;7.10;6.60;;;8.60;99.90;;;;;;5037766;28;20174;-66
2021/12/09 10:02:24;;;;;;;7.43;6.83;;;8.50;99.90;;;;;;5051727;28;20171;-65
2021/12/09 10:04:59;;;;;;;7.93;6.67;;;8.60;99.90;;;;;;5047628;28;20254;-66
2021/12/09 10:07:25;;;;;;;8.97;8.07;;;8.60;99.90;;;;;;5031889;28;20632;-66
2021/12/09 10:09:52;;;;;;;7.77;7.10;;;8.30;99.90;;;;;;5035624;28;20199;-66
2021/12/09 10:12:18;;;;;;;7.97;7.27;;;8.20;99.90;;;;;;5033695;28;20680;-66
2021/12/09 10:14:52;;;;;;;7.37;6.73;;;8.20;99.90;;;;;;5047596;28;20183;-65
2021/12/09 10:17:24;;;;;;;7.77;7.10;;;8.30;99.90;;;;;;5031673;28;20199;-66
2021/12/09 10:19:51;;;;;;;9.00;7.60;;;8.60;99.90;;;;;;5034546;28;20236;-66
2021/12/09 10:22:20;;;;;;;8.23;7.00;;;8.80;99.90;;;;;;5051337;28;20250;-66
2021/12/09 10:24:48;;;;;;;8.33;7.63;;;9.00;99.90;;;;;;5048719;28;20558;-66
2021/12/09 10:27:29;;;;;;;8.10;7.40;;;9.00;99.90;;;;;;5031763;28;20514;-66
2021/12/09 10:30:13;;;;;;;8.27;7.67;;;8.60;99.90;;;;;;5034685;28;20182;-65
2021/12/09 10:32:41;;;;;;;8.87;8.07;;;8.10;99.90;;;;;;5050578;28;20193;-66
2021/12/09 10:35:15;;;;;;;12.13;8.47;;;7.70;99.90;;;;;;5046403;28;20189;-67
2021/12/09 10:37:43;;;;;;;8.67;8.07;;;7.30;99.90;;;;;;5013468;28;20757;-68
2021/12/09 10:40:19;;;;;;;9.37;8.77;;;6.80;99.90;;;;;;5034939;28;20183;-66
2021/12/09 10:42:47;;;;;;;9.07;8.10;;;6.50;99.90;;;;;;5033317;28;20186;-66
2021/12/09 10:45:17;;;;;;;9.23;8.43;;;6.30;99.90;;;;;;5047366;28;20536;-64
2021/12/09 10:53:05;;;;;;;8.63;7.83;;;6.00;99.90;;;;;;5050841;28;20174;-66
2021/12/09 10:55:34;;;;;;;8.40;7.63;;;6.00;99.90;;;;;;5046079;28;20171;-66
2021/12/09 10:58:12;;;;;;;8.10;7.53;;;5.90;99.90;;;;;;5013163;28;20207;-65
2021/12/09 11:00:43;;;;;;;8.10;7.40;;;5.90;99.90;;;;;;5018744;28;20655;-65
2021/12/09 11:03:18;;;;;;;8.50;7.90;;;5.80;99.90;;;;;;5050955;28;20523;-65
2021/12/09 11:05:47;;;;;;;8.37;7.67;;;5.80;99.90;;;;;;5045552;28;20175;-65
2021/12/09 11:08:18;;;;;;;8.43;7.93;;;5.80;99.90;;;;;;5030905;28;20346;-66
2021/12/09 11:10:47;;;;;;;7.93;7.43;;;5.80;99.90;;;;;;5016845;28;20201;-66
2021/12/09 11:13:19;;;;;;;8.00;7.50;;;5.80;99.90;;;;;;5050473;28;20171;-65
2021/12/09 11:15:55;;;;;;;9.20;7.40;;;5.80;99.90;;;;;;5046622;28;20179;-65
2021/12/09 11:18:39;;;;;;;8.13;7.33;;;5.70;99.90;;;;;;5013087;28;20210;-66
2021/12/09 11:21:30;;;;;;;8.73;7.83;;;5.70;99.90;;;;;;5036698;28;20175;-66
2021/12/09 11:24:06;;;;;;;8.23;7.53;;;5.70;99.90;;;;;;5050320;28;20166;-65
2021/12/09 11:26:57;;;;;;;8.43;7.63;;;5.60;99.90;;;;;;5040746;28;20209;-66
2021/12/09 11:29:35;;;;;;;7.40;7.00;;;5.70;99.90;;;;;;4994766;28;20704;-66
2021/12/09 11:32:15;;;;;;;7.80;7.23;;;5.60;99.90;;;;;;5038489;28;20265;-66
2021/12/09 11:34:58;;;;;;;9.23;7.27;;;5.60;99.90;;;;;;5054705;28;20170;-69
2021/12/09 11:39:53;;;;;;;7.60;6.90;;;5.70;99.90;;;;;;5033974;28;20195;-66
2021/12/09 11:42:34;;;;;;;8.43;7.83;;;5.70;99.90;;;;;;5047820;28;20323;-66
2021/12/09 11:45:00;;;;;;;7.20;6.80;;;5.70;99.90;;;;;;5054458;28;20259;-66
2021/12/09 11:47:25;;;;;;;7.40;6.67;;;5.80;99.90;;;;;;5040676;28;20621;-65
2021/12/09 11:49:52;;;;;;;7.00;6.43;;;5.80;99.90;;;;;;5033943;28;20178;-66
2021/12/09 11:52:20;;;;;;;7.67;7.07;;;5.70;99.90;;;;;;5028085;28;20600;-65
2021/12/09 11:55:01;;;;;;;7.60;7.07;;;5.70;99.90;;;;;;5054264;28;20179;-66
2021/12/09 12:15:53;;;;;;;8.67;7.87;;;5.80;99.90;;;;;;5045580;28;20207;-66
2021/12/09 12:18:42;;;;;;;8.40;7.70;;;5.80;99.90;;;;;;5033745;28;20207;-66
2021/12/09 12:21:42;;;;;;;8.40;7.87;;;5.70;99.90;;;;;;5047293;28;20545;-66
2021/12/09 12:25:27;;;;;;;8.07;7.47;;;5.70;99.90;;;;;;5033424;28;20175;-65
2021/12/09 12:33:32;;;;;;;9.37;8.53;;;5.70;99.90;;;;;;5008352;28;20192;-65
2021/12/09 12:36:30;;;;;;;8.30;7.80;;;5.70;99.90;;;;;;5019443;28;20193;-65
2021/12/09 12:39:07;;;;;;;11.97;9.00;;;5.80;99.90;;;;;;5035682;28;20843;-64
2021/12/09 12:41:33;;;;;;;8.30;7.80;;;5.80;99.90;;;;;;5049381;28;20179;-63
2021/12/09 12:44:07;;;;;;;8.80;8.00;;;5.80;99.90;;;;;;5053107;28;20213;-66
2021/12/09 12:51:53;;;;;;;9.40;8.80;;;5.90;99.90;;;;;;5035139;28;20187;-65
2021/12/09 12:54:45;;;;;;;8.03;7.37;;;5.90;99.90;;;;;;5033053;28;20255;-65
2021/12/09 12:57:25;;;;;;;9.00;8.30;;;6.00;99.90;;;;;;5016400;28;20251;-66
2021/12/09 13:00:09;;;;;;;8.53;7.63;;;6.00;99.90;;;;;;5052327;28;20184;-65
2021/12/09 13:08:30;;;;;;;7.67;7.17;;;6.10;99.90;;;;;;5052621;28;20661;-65
2021/12/09 13:19:19;;;;;;;7.30;6.83;;;6.00;99.90;;;;;;5052705;28;20763;-68
2021/12/09 13:22:03;;;;;;;7.40;6.80;;;6.10;99.90;;;;;;5038377;28;20175;-66
2021/12/09 13:27:33;;;;;;;7.67;6.97;;;6.00;99.90;;;;;;5052485;28;20516;-66
2021/12/09 13:30:27;;;;;;;7.30;6.90;;;6.00;99.90;;;;;;5033349;28;20180;-66
2021/12/09 13:49:57;;;;;;;7.43;6.97;;;5.90;99.90;;;;;;5035262;28;20199;-66
2021/12/09 13:55:04;;;;;;;9.63;8.87;;;5.90;99.90;;;;;;5031766;28;20178;-66
2021/12/09 13:57:36;;;;;;;11.83;8.27;;;5.90;99.90;;;;;;5047124;28;20444;-66
2021/12/09 14:00:09;;;;;;;11.57;10.57;;;5.80;99.90;;;;;;5051849;28;20171;-66
2021/12/09 14:02:35;;;;;;;9.53;8.93;;;5.80;99.90;;;;;;5035975;28;20203;-65
2021/12/09 14:05:00;;;;;;;8.70;8.17;;;5.80;99.90;;;;;;5031972;28;20548;-66
2021/12/09 14:07:41;;;;;;;8.50;8.00;;;5.80;99.90;;;;;;5045401;28;20194;-66
2021/12/09 14:10:14;;;;;;;8.20;7.60;;;5.80;99.90;;;;;;5041273;28;20266;-65
2021/12/09 14:12:49;;;;;;;7.93;7.43;;;5.80;99.90;;;;;;5031582;28;20175;-66